createdAt,value
2019-01-12T00:01:38.334Z,-0.59
2019-01-12T00:06:28.421Z,-0.59
2019-01-12T00:11:23.345Z,-0.54
2019-01-12T00:16:13.156Z,-0.45
2019-01-12T00:21:03.958Z,-0.31
2019-01-12T00:25:54.845Z,-0.35
2019-01-12T00:30:45.875Z,-0.40
2019-01-12T00:35:36.393Z,-0.56
2019-01-12T00:40:26.427Z,-0.51
2019-01-12T00:45:17.300Z,-0.72
2019-01-12T00:50:09.241Z,-0.87
2019-01-12T00:55:00.203Z,-0.97
2019-01-12T00:59:51.075Z,-1.07
2019-01-12T01:04:41.812Z,-1.10
2019-01-12T01:09:34.293Z,-0.96
2019-01-12T01:14:26.032Z,-0.87
2019-01-12T01:19:17.334Z,-0.42
2019-01-12T01:24:08.464Z,-0.42
2019-01-12T01:28:59.789Z,-0.63
2019-01-12T01:33:50.091Z,-0.72
2019-01-12T01:38:41.406Z,-0.68
2019-01-12T01:43:33.002Z,-0.56
2019-01-12T01:48:23.887Z,-0.63
2019-01-12T01:53:15.422Z,-0.67
2019-01-12T01:58:06.294Z,-0.67
2019-01-12T02:02:57.059Z,-0.58
2019-01-12T02:07:47.834Z,-0.70
2019-01-12T02:12:38.909Z,-0.71
2019-01-12T02:17:31.621Z,-0.70
2019-01-12T02:22:23.387Z,-0.78
2019-01-12T02:27:16.720Z,-0.80
2019-01-12T02:32:07.308Z,-0.73
2019-01-12T02:37:00.824Z,-0.75
2019-01-12T02:41:52.055Z,-0.72
2019-01-12T02:46:42.572Z,-0.73
2019-01-12T02:51:35.118Z,-0.71
2019-01-12T02:56:25.771Z,-0.72
2019-01-12T03:01:16.102Z,-0.75
2019-01-12T03:06:07.154Z,-0.78
2019-01-12T03:10:56.875Z,-0.90
2019-01-12T03:15:47.324Z,-0.82
2019-01-12T03:20:37.849Z,-0.81
2019-01-12T03:25:28.873Z,-0.82
2019-01-12T03:30:22.613Z,-0.89
2019-01-12T03:35:13.675Z,-0.91
2019-01-12T03:40:06.884Z,-1.17
2019-01-12T03:44:58.082Z,-1.30
2019-01-12T03:49:48.911Z,-1.19
2019-01-12T03:54:40.556Z,-1.17
2019-01-12T03:59:31.776Z,-1.32
2019-01-12T04:04:23.121Z,-1.11
2019-01-12T04:09:13.921Z,-1.01
2019-01-12T04:14:05.531Z,-0.83
2019-01-12T04:19:28.182Z,-0.88
2019-01-12T04:24:22.524Z,-0.87
2019-01-12T04:29:14.572Z,-0.97
2019-01-12T04:34:33.162Z,-1.16
2019-01-12T04:39:27.223Z,-1.17
2019-01-12T04:44:18.057Z,-1.07
2019-01-12T04:49:33.526Z,-1.03
2019-01-12T04:54:27.826Z,-0.93
2019-01-12T04:59:19.856Z,-0.93
2019-01-12T05:04:10.517Z,-0.92
2019-01-12T05:09:01.297Z,-0.90
2019-01-12T05:13:52.917Z,-1.01
2019-01-12T05:18:44.223Z,-1.17
2019-01-12T05:23:38.925Z,-1.57
2019-01-12T05:28:29.968Z,-1.62
2019-01-12T05:33:21.073Z,-1.54
2019-01-12T05:38:14.840Z,-1.22
2019-01-12T05:43:05.508Z,-1.42
2019-01-12T05:47:56.337Z,-1.29
2019-01-12T05:52:47.503Z,-1.53
2019-01-12T05:57:39.849Z,-1.74
2019-01-12T06:02:31.159Z,-1.76
2019-01-12T06:07:21.665Z,-1.68
2019-01-12T06:12:12.973Z,-1.64
2019-01-12T06:17:03.821Z,-1.52
2019-01-12T06:21:54.862Z,-1.52
2019-01-12T06:26:45.914Z,-1.54
2019-01-12T06:31:56.470Z,-1.16
2019-01-12T06:36:47.797Z,-1.17
2019-01-12T06:41:39.413Z,-1.39
2019-01-12T06:46:29.667Z,-0.52
2019-01-12T06:51:20.829Z,0.70
2019-01-12T06:56:11.610Z,0.70
2019-01-12T07:01:03.947Z,0.02
2019-01-12T07:06:06.623Z,-0.55
2019-01-12T07:10:58.124Z,-0.55
2019-01-12T07:15:47.719Z,-0.32
2019-01-12T07:20:39.765Z,-0.30
2019-01-12T07:25:31.116Z,-0.22
2019-01-12T07:30:25.430Z,-0.22
2019-01-12T07:35:16.930Z,-0.37
2019-01-12T07:40:08.935Z,-0.34
2019-01-12T07:45:01.014Z,-0.47
2019-01-12T07:49:52.146Z,-0.61
2019-01-12T07:54:42.900Z,-0.48
2019-01-12T07:59:34.251Z,-0.38
2019-01-12T08:04:36.613Z,0.42
2019-01-12T08:09:27.947Z,0.42
2019-01-12T08:14:18.721Z,1.17
2019-01-12T08:19:09.819Z,1.47
2019-01-12T08:24:00.656Z,1.87
2019-01-12T08:28:51.983Z,2.02
2019-01-12T08:33:43.010Z,1.93
2019-01-12T08:38:42.054Z,2.45
2019-01-12T08:43:38.193Z,2.77
2019-01-12T08:48:30.997Z,3.02
2019-01-12T08:53:25.279Z,2.96
2019-01-12T08:58:16.859Z,2.38
2019-01-12T09:03:07.425Z,1.89
2019-01-12T09:08:03.526Z,2.11
2019-01-12T09:13:02.364Z,2.44
2019-01-12T09:17:57.268Z,2.52
2019-01-12T09:23:12.528Z,2.99
2019-01-12T09:28:33.542Z,3.79
2019-01-12T09:34:14.198Z,3.88
2019-01-12T09:39:40.579Z,4.03
2019-01-12T09:45:04.624Z,3.43
2019-01-12T09:50:26.276Z,2.83
2019-01-12T09:55:44.176Z,2.86
2019-01-12T10:01:14.714Z,2.79
2019-01-12T10:06:36.520Z,3.27
2019-01-12T10:12:00.175Z,3.13
2019-01-12T10:17:28.451Z,3.94
2019-01-12T10:22:54.378Z,3.97
2019-01-12T10:28:22.028Z,3.81
2019-01-12T10:33:45.145Z,3.76
2019-01-12T10:39:04.233Z,3.85
2019-01-12T10:44:25.734Z,4.00
2019-01-12T10:49:47.266Z,4.23
2019-01-12T10:54:41.656Z,4.42
2019-01-12T10:59:32.714Z,4.85
2019-01-12T11:04:23.586Z,4.42
2019-01-12T11:09:15.443Z,4.33
2019-01-12T11:14:06.695Z,4.89
2019-01-12T11:18:58.026Z,4.74
2019-01-12T11:23:49.117Z,4.87
2019-01-12T11:28:40.202Z,5.17
2019-01-12T11:33:31.253Z,5.70
2019-01-12T11:38:24.326Z,5.73
2019-01-12T11:43:14.960Z,5.52
2019-01-12T11:48:07.550Z,5.25
2019-01-12T11:52:58.650Z,5.01
2019-01-12T11:57:50.250Z,4.94
2019-01-12T12:02:44.097Z,4.81
2019-01-12T12:07:36.210Z,4.89
2019-01-12T12:12:27.797Z,5.05
2019-01-12T12:17:19.628Z,5.31
2019-01-12T12:22:10.497Z,5.63
2019-01-12T12:27:01.831Z,5.52
2019-01-12T12:31:52.651Z,5.51
2019-01-12T12:36:43.148Z,5.27
2019-01-12T12:41:34.177Z,5.15
2019-01-12T12:46:25.310Z,4.60
2019-01-12T12:51:17.647Z,4.86
2019-01-12T12:56:09.274Z,4.81
2019-01-12T13:00:59.633Z,4.95
2019-01-12T13:05:51.660Z,4.96
2019-01-12T13:10:42.698Z,4.34
2019-01-12T13:15:33.300Z,4.34
2019-01-12T13:20:26.129Z,4.50
2019-01-12T13:25:17.020Z,4.31
2019-01-12T13:30:11.354Z,4.06
2019-01-12T13:35:03.205Z,4.04
2019-01-12T13:39:55.013Z,3.75
2019-01-12T13:44:49.245Z,3.58
2019-01-12T13:50:56.286Z,3.44
2019-01-12T13:56:34.768Z,3.26
2019-01-12T14:01:32.278Z,2.98
2019-01-12T14:06:37.958Z,3.12
2019-01-12T14:11:33.298Z,2.88
2019-01-12T14:16:24.678Z,2.59
2019-01-12T14:21:16.030Z,2.43
2019-01-12T14:26:07.612Z,2.17
2019-01-12T14:30:58.152Z,2.08
2019-01-12T14:35:48.725Z,1.95
2019-01-12T14:40:40.691Z,1.78
2019-01-12T14:45:39.330Z,1.71
2019-01-12T14:50:33.685Z,1.58
2019-01-12T14:55:25.068Z,1.47
2019-01-12T15:00:18.940Z,1.29
2019-01-12T15:05:11.527Z,1.33
2019-01-12T15:10:03.705Z,1.22
2019-01-12T15:14:55.213Z,1.07
2019-01-12T15:20:11.499Z,1.05
2019-01-12T15:25:30.504Z,0.87
2019-01-12T15:31:08.179Z,1.01
2019-01-12T15:36:27.478Z,0.82
2019-01-12T15:41:54.680Z,0.91
2019-01-12T15:47:19.901Z,0.79
2019-01-12T15:52:40.336Z,0.79
2019-01-12T15:58:00.322Z,0.73
2019-01-12T16:03:24.612Z,0.59
2019-01-12T16:08:52.368Z,0.69
2019-01-12T16:14:12.158Z,0.79
2019-01-12T16:19:33.959Z,0.31
2019-01-12T16:24:53.188Z,0.54
2019-01-12T16:30:13.960Z,0.42
2019-01-12T16:35:33.250Z,0.32
2019-01-12T16:40:54.012Z,0.32
2019-01-12T16:46:14.275Z,0.18
2019-01-12T16:51:33.643Z,0.18
2019-01-12T16:56:55.004Z,0.30
2019-01-12T17:02:17.479Z,0.39
2019-01-12T17:07:15.242Z,0.39
2019-01-12T17:12:05.835Z,0.36
2019-01-12T17:16:57.671Z,0.35
2019-01-12T17:21:48.480Z,0.52
2019-01-12T17:26:40.258Z,0.28
2019-01-12T17:31:33.764Z,0.39
2019-01-12T17:36:25.841Z,-0.12
2019-01-12T17:41:18.195Z,-0.12
2019-01-12T17:46:13.579Z,0.18
2019-01-12T17:51:04.426Z,0.18
2019-01-12T17:56:00.632Z,0.18
2019-01-12T18:00:57.413Z,0.24
2019-01-12T18:05:50.743Z,0.01
2019-01-12T18:10:41.649Z,0.08
2019-01-12T18:15:32.879Z,-0.04
2019-01-12T18:20:24.977Z,0.04
2019-01-12T18:25:20.820Z,-0.08
2019-01-12T18:30:15.212Z,-0.01
2019-01-12T18:35:06.509Z,-0.20
2019-01-12T18:39:57.189Z,-0.14
2019-01-12T18:44:51.022Z,-0.14
2019-01-12T18:50:06.478Z,-0.16
2019-01-12T18:55:28.275Z,-0.19
2019-01-12T19:00:37.172Z,-0.07
2019-01-12T19:05:44.495Z,-0.10
2019-01-12T19:10:41.688Z,-0.10
2019-01-12T19:16:05.188Z,-0.10
2019-01-12T19:21:02.761Z,-0.20
2019-01-12T19:26:02.513Z,-0.21
2019-01-12T19:31:00.886Z,-0.31
2019-01-12T19:35:58.532Z,-0.31
2019-01-12T19:40:49.585Z,-0.32
2019-01-12T19:45:43.234Z,-0.32
2019-01-12T19:50:37.847Z,-0.37
2019-01-12T19:55:31.505Z,-0.50
2019-01-12T20:00:36.312Z,-0.47
2019-01-12T20:05:29.434Z,-0.61
2019-01-12T20:10:20.687Z,-0.71
2019-01-12T20:15:24.334Z,-0.87
2019-01-12T20:20:16.871Z,-0.88
2019-01-12T20:25:08.709Z,-0.91
2019-01-12T20:30:01.287Z,-0.87
2019-01-12T20:35:40.001Z,-1.02
2019-01-12T20:41:07.707Z,-1.03
2019-01-12T20:46:39.216Z,-1.05
2019-01-12T20:51:57.259Z,-1.22
2019-01-12T20:57:20.470Z,-1.42
2019-01-12T21:02:55.584Z,-1.57
2019-01-12T21:08:22.007Z,-1.54
2019-01-12T21:14:06.582Z,-1.53
2019-01-12T21:18:58.680Z,-1.45
2019-01-12T21:23:51.015Z,-1.71
2019-01-12T21:28:42.348Z,-1.66
2019-01-12T21:33:33.193Z,-1.52
2019-01-12T21:38:25.948Z,-1.64
2019-01-12T21:43:18.926Z,-1.49
2019-01-12T21:48:10.741Z,-1.42
2019-01-12T21:53:08.738Z,-1.50
2019-01-12T21:58:02.868Z,-1.64
2019-01-12T22:02:54.858Z,-1.74
2019-01-12T22:07:47.062Z,-1.73
2019-01-12T22:12:38.630Z,-1.68
2019-01-12T22:17:54.089Z,-1.86
2019-01-12T22:23:19.008Z,-1.84
2019-01-12T22:28:10.000Z,-1.83
2019-01-12T22:33:00.843Z,-1.67
2019-01-12T22:37:51.611Z,-1.74
2019-01-12T22:42:41.965Z,-1.74
2019-01-12T22:47:33.027Z,-1.74
2019-01-12T22:52:27.741Z,-1.74
2019-01-12T22:57:19.012Z,-1.82
2019-01-12T23:02:12.147Z,-1.72
2019-01-12T23:07:03.774Z,-1.83
2019-01-12T23:11:54.783Z,-1.82
2019-01-12T23:16:45.361Z,-1.91
2019-01-12T23:21:36.968Z,-1.97
2019-01-12T23:26:29.543Z,-1.92
2019-01-12T23:31:21.676Z,-2.16
2019-01-12T23:36:15.018Z,-1.93
2019-01-12T23:41:13.300Z,-2.02
2019-01-12T23:46:10.502Z,-1.72
2019-01-12T23:51:14.960Z,-1.98
2019-01-12T23:56:17.644Z,-2.08
